sensor_id;sensor_type;location;lat;lon;timestamp;P1;durP1;ratioP1;P2;durP2;ratioP2
22468;SDS011;11401;50.792;4.352;2022-09-28T00:02:23;1.98;;;1.42;;
22468;SDS011;11401;50.792;4.352;2022-09-28T00:04:50;1.60;;;1.00;;
22468;SDS011;11401;50.792;4.352;2022-09-28T00:07:18;1.42;;;1.15;;
22468;SDS011;11401;50.792;4.352;2022-09-28T00:09:44;3.55;;;1.25;;
22468;SDS011;11401;50.792;4.352;2022-09-28T00:12:11;3.00;;;1.58;;
22468;SDS011;11401;50.792;4.352;2022-09-28T00:14:38;1.90;;;1.08;;
22468;SDS011;11401;50.792;4.352;2022-09-28T00:17:05;2.03;;;1.30;;
22468;SDS011;11401;50.792;4.352;2022-09-28T00:19:33;2.50;;;1.33;;
22468;SDS011;11401;50.792;4.352;2022-09-28T00:22:00;1.23;;;1.20;;
22468;SDS011;11401;50.792;4.352;2022-09-28T00:24:27;1.50;;;1.40;;
22468;SDS011;11401;50.792;4.352;2022-09-28T00:26:55;1.95;;;1.02;;
22468;SDS011;11401;50.792;4.352;2022-09-28T00:29:25;1.23;;;1.13;;
22468;SDS011;11401;50.792;4.352;2022-09-28T00:31:54;1.33;;;1.23;;
22468;SDS011;11401;50.792;4.352;2022-09-28T00:34:28;1.25;;;1.15;;
22468;SDS011;11401;50.792;4.352;2022-09-28T00:36:58;1.10;;;1.10;;
22468;SDS011;11401;50.792;4.352;2022-09-28T00:39:26;2.08;;;1.23;;
22468;SDS011;11401;50.792;4.352;2022-09-28T00:41:57;1.90;;;1.20;;
22468;SDS011;11401;50.792;4.352;2022-09-28T00:47:12;1.88;;;1.23;;
22468;SDS011;11401;50.792;4.352;2022-09-28T00:52:48;1.40;;;1.30;;
22468;SDS011;11401;50.792;4.352;2022-09-28T00:55:33;1.05;;;1.05;;
22468;SDS011;11401;50.792;4.352;2022-09-28T00:58:05;1.27;;;1.17;;
22468;SDS011;11401;50.792;4.352;2022-09-28T01:00:37;2.13;;;1.40;;
22468;SDS011;11401;50.792;4.352;2022-09-28T01:03:06;1.67;;;1.17;;
22468;SDS011;11401;50.792;4.352;2022-09-28T01:05:34;2.85;;;1.45;;
22468;SDS011;11401;50.792;4.352;2022-09-28T01:08:02;1.83;;;1.27;;
22468;SDS011;11401;50.792;4.352;2022-09-28T01:10:30;1.60;;;1.50;;
22468;SDS011;11401;50.792;4.352;2022-09-28T01:12:58;2.10;;;1.13;;
22468;SDS011;11401;50.792;4.352;2022-09-28T01:15:27;2.50;;;1.20;;
22468;SDS011;11401;50.792;4.352;2022-09-28T01:21:00;2.63;;;1.35;;
22468;SDS011;11401;50.792;4.352;2022-09-28T01:29:31;2.33;;;1.42;;
22468;SDS011;11401;50.792;4.352;2022-09-28T01:34:53;1.30;;;1.20;;
22468;SDS011;11401;50.792;4.352;2022-09-28T01:37:38;1.30;;;1.17;;
22468;SDS011;11401;50.792;4.352;2022-09-28T01:40:15;3.58;;;1.40;;
22468;SDS011;11401;50.792;4.352;2022-09-28T01:42:46;2.63;;;1.67;;
22468;SDS011;11401;50.792;4.352;2022-09-28T01:45:19;2.15;;;1.55;;
22468;SDS011;11401;50.792;4.352;2022-09-28T01:47:50;3.67;;;1.20;;
22468;SDS011;11401;50.792;4.352;2022-09-28T01:50:21;3.10;;;1.45;;
22468;SDS011;11401;50.792;4.352;2022-09-28T01:52:53;1.50;;;1.40;;
22468;SDS011;11401;50.792;4.352;2022-09-28T01:55:29;1.38;;;1.27;;
22468;SDS011;11401;50.792;4.352;2022-09-28T02:00:37;3.20;;;1.40;;
22468;SDS011;11401;50.792;4.352;2022-09-28T02:03:10;1.88;;;1.30;;
22468;SDS011;11401;50.792;4.352;2022-09-28T02:08:56;2.47;;;1.52;;
22468;SDS011;11401;50.792;4.352;2022-09-28T02:11:37;1.70;;;1.40;;
22468;SDS011;11401;50.792;4.352;2022-09-28T02:14:09;1.35;;;1.10;;
22468;SDS011;11401;50.792;4.352;2022-09-28T02:16:40;1.83;;;1.38;;
22468;SDS011;11401;50.792;4.352;2022-09-28T02:19:09;1.45;;;1.13;;
22468;SDS011;11401;50.792;4.352;2022-09-28T02:24:38;1.40;;;1.30;;
22468;SDS011;11401;50.792;4.352;2022-09-28T02:27:13;1.55;;;1.20;;
22468;SDS011;11401;50.792;4.352;2022-09-28T02:29:43;4.22;;;1.35;;
22468;SDS011;11401;50.792;4.352;2022-09-28T02:32:11;2.03;;;1.15;;
22468;SDS011;11401;50.792;4.352;2022-09-28T02:34:38;2.10;;;1.10;;
22468;SDS011;11401;50.792;4.352;2022-09-28T02:37:05;1.30;;;1.20;;
22468;SDS011;11401;50.792;4.352;2022-09-28T02:39:32;2.15;;;1.20;;
22468;SDS011;11401;50.792;4.352;2022-09-28T02:44:43;2.28;;;1.13;;
22468;SDS011;11401;50.792;4.352;2022-09-28T02:50:15;1.30;;;1.17;;
22468;SDS011;11401;50.792;4.352;2022-09-28T02:56:10;2.33;;;1.20;;
22468;SDS011;11401;50.792;4.352;2022-09-28T03:07:39;3.22;;;1.50;;
22468;SDS011;11401;50.792;4.352;2022-09-28T03:13:04;1.92;;;1.27;;
22468;SDS011;11401;50.792;4.352;2022-09-28T03:15:33;2.92;;;1.50;;
22468;SDS011;11401;50.792;4.352;2022-09-28T03:18:01;1.60;;;1.15;;
22468;SDS011;11401;50.792;4.352;2022-09-28T03:20:29;1.30;;;1.20;;
22468;SDS011;11401;50.792;4.352;2022-09-28T03:22:58;1.45;;;1.02;;
22468;SDS011;11401;50.792;4.352;2022-09-28T03:25:46;2.67;;;1.50;;
22468;SDS011;11401;50.792;4.352;2022-09-28T03:28:13;2.63;;;0.98;;
22468;SDS011;11401;50.792;4.352;2022-09-28T03:30:40;1.67;;;1.02;;
22468;SDS011;11401;50.792;4.352;2022-09-28T03:33:09;2.42;;;0.90;;
22468;SDS011;11401;50.792;4.352;2022-09-28T03:35:36;2.08;;;1.00;;
22468;SDS011;11401;50.792;4.352;2022-09-28T03:38:03;1.27;;;0.95;;
22468;SDS011;11401;50.792;4.352;2022-09-28T03:40:32;1.52;;;0.88;;
22468;SDS011;11401;50.792;4.352;2022-09-28T03:42:59;2.13;;;1.08;;
22468;SDS011;11401;50.792;4.352;2022-09-28T03:45:27;1.48;;;0.95;;
22468;SDS011;11401;50.792;4.352;2022-09-28T03:47:54;2.75;;;1.30;;
22468;SDS011;11401;50.792;4.352;2022-09-28T03:50:21;2.72;;;1.02;;
22468;SDS011;11401;50.792;4.352;2022-09-28T03:52:47;4.45;;;1.40;;
22468;SDS011;11401;50.792;4.352;2022-09-28T03:55:14;1.20;;;1.10;;
22468;SDS011;11401;50.792;4.352;2022-09-28T03:57:41;1.42;;;0.95;;
22468;SDS011;11401;50.792;4.352;2022-09-28T04:00:08;1.08;;;0.98;;
22468;SDS011;11401;50.792;4.352;2022-09-28T04:02:38;1.00;;;1.00;;
22468;SDS011;11401;50.792;4.352;2022-09-28T04:05:06;1.20;;;1.10;;
22468;SDS011;11401;50.792;4.352;2022-09-28T04:07:36;0.77;;;0.77;;
22468;SDS011;11401;50.792;4.352;2022-09-28T04:10:05;1.52;;;1.00;;
22468;SDS011;11401;50.792;4.352;2022-09-28T04:12:33;1.38;;;1.00;;
22468;SDS011;11401;50.792;4.352;2022-09-28T04:14:59;1.08;;;1.00;;
22468;SDS011;11401;50.792;4.352;2022-09-28T04:17:27;1.83;;;1.10;;
22468;SDS011;11401;50.792;4.352;2022-09-28T04:19:54;1.92;;;0.90;;
22468;SDS011;11401;50.792;4.352;2022-09-28T04:22:35;1.52;;;0.90;;
22468;SDS011;11401;50.792;4.352;2022-09-28T04:25:03;2.85;;;1.20;;
22468;SDS011;11401;50.792;4.352;2022-09-28T04:27:30;1.85;;;0.93;;
22468;SDS011;11401;50.792;4.352;2022-09-28T04:30:17;0.80;;;0.80;;
22468;SDS011;11401;50.792;4.352;2022-09-28T04:32:47;1.58;;;1.08;;
22468;SDS011;11401;50.792;4.352;2022-09-28T04:35:15;1.80;;;1.00;;
22468;SDS011;11401;50.792;4.352;2022-09-28T04:37:42;1.60;;;1.05;;
22468;SDS011;11401;50.792;4.352;2022-09-28T04:40:09;1.20;;;0.90;;
22468;SDS011;11401;50.792;4.352;2022-09-28T04:42:36;1.30;;;1.08;;
22468;SDS011;11401;50.792;4.352;2022-09-28T04:45:04;1.60;;;1.00;;
22468;SDS011;11401;50.792;4.352;2022-09-28T04:47:35;1.85;;;1.10;;
22468;SDS011;11401;50.792;4.352;2022-09-28T04:50:20;1.27;;;1.20;;
22468;SDS011;11401;50.792;4.352;2022-09-28T04:53:11;1.90;;;1.10;;
22468;SDS011;11401;50.792;4.352;2022-09-28T04:55:38;1.30;;;1.20;;
22468;SDS011;11401;50.792;4.352;2022-09-28T04:58:05;1.02;;;1.00;;
22468;SDS011;11401;50.792;4.352;2022-09-28T05:00:32;1.23;;;1.10;;
22468;SDS011;11401;50.792;4.352;2022-09-28T05:03:10;1.77;;;0.90;;
22468;SDS011;11401;50.792;4.352;2022-09-28T05:06:02;2.55;;;1.30;;
22468;SDS011;11401;50.792;4.352;2022-09-28T05:08:41;1.20;;;1.10;;
22468;SDS011;11401;50.792;4.352;2022-09-28T05:11:11;1.23;;;1.08;;
22468;SDS011;11401;50.792;4.352;2022-09-28T05:13:43;1.70;;;1.10;;
22468;SDS011;11401;50.792;4.352;2022-09-28T05:16:14;1.45;;;1.00;;
22468;SDS011;11401;50.792;4.352;2022-09-28T05:19:00;1.55;;;1.10;;
22468;SDS011;11401;50.792;4.352;2022-09-28T05:21:28;1.15;;;1.00;;
22468;SDS011;11401;50.792;4.352;2022-09-28T05:23:56;3.45;;;1.42;;
22468;SDS011;11401;50.792;4.352;2022-09-28T05:26:24;1.60;;;1.00;;
22468;SDS011;11401;50.792;4.352;2022-09-28T05:28:51;3.05;;;1.48;;
22468;SDS011;11401;50.792;4.352;2022-09-28T05:31:33;1.35;;;1.20;;
22468;SDS011;11401;50.792;4.352;2022-09-28T05:34:02;1.45;;;1.35;;
22468;SDS011;11401;50.792;4.352;2022-09-28T05:36:30;1.38;;;1.00;;
22468;SDS011;11401;50.792;4.352;2022-09-28T05:38:57;1.70;;;1.60;;
22468;SDS011;11401;50.792;4.352;2022-09-28T05:41:24;2.53;;;1.20;;
22468;SDS011;11401;50.792;4.352;2022-09-28T05:43:51;3.60;;;2.20;;
22468;SDS011;11401;50.792;4.352;2022-09-28T05:46:20;1.33;;;1.23;;
22468;SDS011;11401;50.792;4.352;2022-09-28T05:48:49;2.13;;;1.70;;
22468;SDS011;11401;50.792;4.352;2022-09-28T05:51:18;1.50;;;1.40;;
22468;SDS011;11401;50.792;4.352;2022-09-28T05:53:45;3.63;;;1.45;;
22468;SDS011;11401;50.792;4.352;2022-09-28T05:56:14;1.48;;;1.38;;
22468;SDS011;11401;50.792;4.352;2022-09-28T05:58:43;5.13;;;2.22;;
22468;SDS011;11401;50.792;4.352;2022-09-28T06:01:11;3.35;;;1.90;;
22468;SDS011;11401;50.792;4.352;2022-09-28T06:03:38;3.85;;;2.00;;
22468;SDS011;11401;50.792;4.352;2022-09-28T06:06:05;2.05;;;1.80;;
22468;SDS011;11401;50.792;4.352;2022-09-28T06:08:32;4.90;;;2.33;;
22468;SDS011;11401;50.792;4.352;2022-09-28T06:11:23;2.42;;;2.10;;
22468;SDS011;11401;50.792;4.352;2022-09-28T06:13:55;5.22;;;2.08;;
22468;SDS011;11401;50.792;4.352;2022-09-28T06:16:25;4.63;;;2.58;;
22468;SDS011;11401;50.792;4.352;2022-09-28T06:18:52;6.25;;;2.08;;
22468;SDS011;11401;50.792;4.352;2022-09-28T06:21:32;2.78;;;2.45;;
22468;SDS011;11401;50.792;4.352;2022-09-28T06:23:59;3.47;;;2.60;;
22468;SDS011;11401;50.792;4.352;2022-09-28T06:26:26;5.07;;;2.53;;
22468;SDS011;11401;50.792;4.352;2022-09-28T06:28:53;2.85;;;2.58;;
22468;SDS011;11401;50.792;4.352;2022-09-28T06:31:20;3.65;;;2.40;;
22468;SDS011;11401;50.792;4.352;2022-09-28T06:33:49;3.08;;;2.75;;
22468;SDS011;11401;50.792;4.352;2022-09-28T06:36:17;3.05;;;2.75;;
22468;SDS011;11401;50.792;4.352;2022-09-28T06:38:50;4.85;;;2.40;;
22468;SDS011;11401;50.792;4.352;2022-09-28T06:41:22;4.43;;;2.70;;
22468;SDS011;11401;50.792;4.352;2022-09-28T06:43:49;4.47;;;2.78;;
22468;SDS011;11401;50.792;4.352;2022-09-28T06:46:36;7.38;;;2.88;;
22468;SDS011;11401;50.792;4.352;2022-09-28T06:49:09;7.05;;;3.10;;
22468;SDS011;11401;50.792;4.352;2022-09-28T06:51:59;4.70;;;2.85;;
22468;SDS011;11401;50.792;4.352;2022-09-28T06:54:55;4.03;;;2.80;;
22468;SDS011;11401;50.792;4.352;2022-09-28T06:57:31;2.78;;;2.33;;
22468;SDS011;11401;50.792;4.352;2022-09-28T06:59:58;3.72;;;2.45;;
22468;SDS011;11401;50.792;4.352;2022-09-28T07:02:25;2.95;;;2.47;;
22468;SDS011;11401;50.792;4.352;2022-09-28T07:05:15;4.65;;;3.40;;
22468;SDS011;11401;50.792;4.352;2022-09-28T07:07:56;3.58;;;2.50;;
22468;SDS011;11401;50.792;4.352;2022-09-28T07:13:40;4.47;;;2.60;;
22468;SDS011;11401;50.792;4.352;2022-09-28T07:16:18;5.03;;;2.83;;
22468;SDS011;11401;50.792;4.352;2022-09-28T07:18:52;4.25;;;2.70;;
22468;SDS011;11401;50.792;4.352;2022-09-28T07:21:19;5.32;;;2.67;;
22468;SDS011;11401;50.792;4.352;2022-09-28T07:23:56;4.68;;;2.67;;
22468;SDS011;11401;50.792;4.352;2022-09-28T07:26:30;4.40;;;2.22;;
22468;SDS011;11401;50.792;4.352;2022-09-28T07:28:58;2.75;;;2.55;;
22468;SDS011;11401;50.792;4.352;2022-09-28T07:32:00;4.70;;;2.70;;
22468;SDS011;11401;50.792;4.352;2022-09-28T07:34:28;4.45;;;2.50;;
22468;SDS011;11401;50.792;4.352;2022-09-28T07:37:01;4.03;;;3.20;;
22468;SDS011;11401;50.792;4.352;2022-09-28T07:39:28;4.57;;;2.60;;
22468;SDS011;11401;50.792;4.352;2022-09-28T07:41:55;3.42;;;2.85;;
22468;SDS011;11401;50.792;4.352;2022-09-28T07:44:29;3.45;;;2.85;;
22468;SDS011;11401;50.792;4.352;2022-09-28T07:46:57;6.90;;;3.08;;
22468;SDS011;11401;50.792;4.352;2022-09-28T07:49:50;8.48;;;2.80;;
22468;SDS011;11401;50.792;4.352;2022-09-28T07:52:37;5.32;;;3.22;;
22468;SDS011;11401;50.792;4.352;2022-09-28T07:55:16;6.78;;;2.95;;
22468;SDS011;11401;50.792;4.352;2022-09-28T07:57:56;6.93;;;2.78;;
22468;SDS011;11401;50.792;4.352;2022-09-28T08:01:07;4.82;;;2.92;;
22468;SDS011;11401;50.792;4.352;2022-09-28T08:03:37;3.80;;;2.72;;
22468;SDS011;11401;50.792;4.352;2022-09-28T08:06:05;5.07;;;2.88;;
22468;SDS011;11401;50.792;4.352;2022-09-28T08:08:36;5.55;;;3.50;;
22468;SDS011;11401;50.792;4.352;2022-09-28T08:11:10;5.20;;;3.53;;
22468;SDS011;11401;50.792;4.352;2022-09-28T08:13:55;5.82;;;3.03;;
22468;SDS011;11401;50.792;4.352;2022-09-28T08:16:55;4.65;;;2.70;;
22468;SDS011;11401;50.792;4.352;2022-09-28T08:19:42;4.82;;;2.25;;
22468;SDS011;11401;50.792;4.352;2022-09-28T08:22:38;9.98;;;2.92;;
22468;SDS011;11401;50.792;4.352;2022-09-28T08:25:05;6.38;;;3.22;;
22468;SDS011;11401;50.792;4.352;2022-09-28T08:27:33;5.60;;;2.80;;
22468;SDS011;11401;50.792;4.352;2022-09-28T08:30:00;6.63;;;3.03;;
22468;SDS011;11401;50.792;4.352;2022-09-28T08:32:56;6.43;;;3.00;;
22468;SDS011;11401;50.792;4.352;2022-09-28T08:35:41;10.75;;;2.90;;
22468;SDS011;11401;50.792;4.352;2022-09-28T08:38:13;7.80;;;3.10;;
22468;SDS011;11401;50.792;4.352;2022-09-28T08:44:11;4.80;;;2.80;;
22468;SDS011;11401;50.792;4.352;2022-09-28T08:47:21;6.22;;;2.22;;
22468;SDS011;11401;50.792;4.352;2022-09-28T08:50:31;8.13;;;3.20;;
22468;SDS011;11401;50.792;4.352;2022-09-28T08:53:10;8.65;;;3.20;;
22468;SDS011;11401;50.792;4.352;2022-09-28T08:56:11;7.90;;;2.80;;
22468;SDS011;11401;50.792;4.352;2022-09-28T08:58:45;4.90;;;2.80;;
22468;SDS011;11401;50.792;4.352;2022-09-28T09:01:17;8.40;;;2.75;;
22468;SDS011;11401;50.792;4.352;2022-09-28T09:03:45;4.47;;;2.42;;
22468;SDS011;11401;50.792;4.352;2022-09-28T09:17:39;5.25;;;2.50;;
22468;SDS011;11401;50.792;4.352;2022-09-28T09:23:18;3.22;;;2.40;;
22468;SDS011;11401;50.792;4.352;2022-09-28T09:26:18;10.93;;;2.90;;
22468;SDS011;11401;50.792;4.352;2022-09-28T09:41:08;3.75;;;1.90;;
22468;SDS011;11401;50.792;4.352;2022-09-28T09:49:41;3.72;;;2.13;;
22468;SDS011;11401;50.792;4.352;2022-09-28T09:52:20;6.25;;;2.28;;
22468;SDS011;11401;50.792;4.352;2022-09-28T10:01:06;4.03;;;1.90;;
22468;SDS011;11401;50.792;4.352;2022-09-28T10:03:58;5.13;;;1.77;;
22468;SDS011;11401;50.792;4.352;2022-09-28T10:06:29;4.18;;;2.10;;
22468;SDS011;11401;50.792;4.352;2022-09-28T10:09:05;2.25;;;2.03;;
22468;SDS011;11401;50.792;4.352;2022-09-28T10:11:42;3.47;;;1.92;;
22468;SDS011;11401;50.792;4.352;2022-09-28T10:14:16;5.60;;;2.00;;
22468;SDS011;11401;50.792;4.352;2022-09-28T10:16:54;4.57;;;1.90;;
22468;SDS011;11401;50.792;4.352;2022-09-28T10:19:43;2.92;;;1.50;;
22468;SDS011;11401;50.792;4.352;2022-09-28T10:22:36;5.63;;;1.90;;
22468;SDS011;11401;50.792;4.352;2022-09-28T10:25:10;3.58;;;1.40;;
22468;SDS011;11401;50.792;4.352;2022-09-28T10:27:40;2.58;;;1.50;;
22468;SDS011;11401;50.792;4.352;2022-09-28T10:30:13;4.70;;;1.50;;
22468;SDS011;11401;50.792;4.352;2022-09-28T10:32:46;2.22;;;1.30;;
22468;SDS011;11401;50.792;4.352;2022-09-28T10:38:14;2.17;;;1.45;;
22468;SDS011;11401;50.792;4.352;2022-09-28T10:40:50;2.08;;;1.65;;
22468;SDS011;11401;50.792;4.352;2022-09-28T10:43:34;4.15;;;1.60;;
22468;SDS011;11401;50.792;4.352;2022-09-28T10:46:14;4.70;;;1.83;;
22468;SDS011;11401;50.792;4.352;2022-09-28T10:48:52;8.27;;;1.83;;
22468;SDS011;11401;50.792;4.352;2022-09-28T10:51:42;3.05;;;1.30;;
22468;SDS011;11401;50.792;4.352;2022-09-28T10:54:26;3.75;;;1.40;;
22468;SDS011;11401;50.792;4.352;2022-09-28T10:56:57;4.75;;;1.30;;
22468;SDS011;11401;50.792;4.352;2022-09-28T10:59:45;3.00;;;1.60;;
22468;SDS011;11401;50.792;4.352;2022-09-28T11:02:27;5.72;;;1.20;;
22468;SDS011;11401;50.792;4.352;2022-09-28T11:05:17;2.03;;;1.30;;
22468;SDS011;11401;50.792;4.352;2022-09-28T11:07:47;7.07;;;1.73;;
22468;SDS011;11401;50.792;4.352;2022-09-28T11:10:23;1.67;;;1.00;;
22468;SDS011;11401;50.792;4.352;2022-09-28T11:12:56;1.23;;;1.13;;
22468;SDS011;11401;50.792;4.352;2022-09-28T11:15:29;3.03;;;1.17;;
22468;SDS011;11401;50.792;4.352;2022-09-28T11:20:52;4.53;;;1.20;;
22468;SDS011;11401;50.792;4.352;2022-09-28T11:23:54;1.42;;;1.05;;
22468;SDS011;11401;50.792;4.352;2022-09-28T11:26:24;4.28;;;1.33;;
22468;SDS011;11401;50.792;4.352;2022-09-28T11:28:53;2.80;;;1.25;;
22468;SDS011;11401;50.792;4.352;2022-09-28T11:31:30;3.47;;;1.02;;
22468;SDS011;11401;50.792;4.352;2022-09-28T11:34:23;2.10;;;1.00;;
22468;SDS011;11401;50.792;4.352;2022-09-28T11:42:46;4.88;;;1.38;;
22468;SDS011;11401;50.792;4.352;2022-09-28T11:45:31;2.70;;;1.23;;
22468;SDS011;11401;50.792;4.352;2022-09-28T11:48:16;3.58;;;1.27;;
22468;SDS011;11401;50.792;4.352;2022-09-28T11:51:03;1.75;;;1.10;;
22468;SDS011;11401;50.792;4.352;2022-09-28T11:53:42;2.22;;;1.23;;
22468;SDS011;11401;50.792;4.352;2022-09-28T11:59:13;2.15;;;1.40;;
22468;SDS011;11401;50.792;4.352;2022-09-28T12:01:57;2.70;;;1.33;;
22468;SDS011;11401;50.792;4.352;2022-09-28T12:04:53;2.63;;;1.15;;
22468;SDS011;11401;50.792;4.352;2022-09-28T12:09:53;1.70;;;0.98;;
22468;SDS011;11401;50.792;4.352;2022-09-28T12:15:25;2.80;;;1.00;;
22468;SDS011;11401;50.792;4.352;2022-09-28T12:18:40;2.17;;;1.20;;
22468;SDS011;11401;50.792;4.352;2022-09-28T12:23:56;3.10;;;1.17;;
22468;SDS011;11401;50.792;4.352;2022-09-28T12:29:23;1.30;;;1.08;;
22468;SDS011;11401;50.792;4.352;2022-09-28T12:32:11;1.60;;;1.00;;
22468;SDS011;11401;50.792;4.352;2022-09-28T12:34:49;1.88;;;1.40;;
22468;SDS011;11401;50.792;4.352;2022-09-28T12:37:22;1.38;;;1.13;;
22468;SDS011;11401;50.792;4.352;2022-09-28T12:45:35;2.05;;;0.88;;
22468;SDS011;11401;50.792;4.352;2022-09-28T12:48:47;2.20;;;0.98;;
22468;SDS011;11401;50.792;4.352;2022-09-28T12:51:48;0.77;;;0.70;;
22468;SDS011;11401;50.792;4.352;2022-09-28T12:54:34;1.65;;;0.68;;
22468;SDS011;11401;50.792;4.352;2022-09-28T12:57:36;1.30;;;1.20;;
22468;SDS011;11401;50.792;4.352;2022-09-28T13:00:22;1.70;;;0.90;;
22468;SDS011;11401;50.792;4.352;2022-09-28T13:02:58;1.45;;;1.00;;
22468;SDS011;11401;50.792;4.352;2022-09-28T13:17:41;1.77;;;0.80;;
22468;SDS011;11401;50.792;4.352;2022-09-28T13:20:25;1.52;;;1.20;;
22468;SDS011;11401;50.792;4.352;2022-09-28T13:23:09;0.80;;;0.80;;
22468;SDS011;11401;50.792;4.352;2022-09-28T13:28:36;3.28;;;1.45;;
22468;SDS011;11401;50.792;4.352;2022-09-28T13:31:05;2.20;;;1.08;;
22468;SDS011;11401;50.792;4.352;2022-09-28T13:33:34;1.48;;;1.00;;
22468;SDS011;11401;50.792;4.352;2022-09-28T13:38:50;3.83;;;1.65;;
22468;SDS011;11401;50.792;4.352;2022-09-28T13:41:28;3.22;;;1.17;;
22468;SDS011;11401;50.792;4.352;2022-09-28T13:49:40;2.17;;;0.90;;
22468;SDS011;11401;50.792;4.352;2022-09-28T13:52:24;2.13;;;1.08;;
22468;SDS011;11401;50.792;4.352;2022-09-28T13:58:00;2.80;;;1.30;;
22468;SDS011;11401;50.792;4.352;2022-09-28T14:00:34;1.10;;;1.00;;
22468;SDS011;11401;50.792;4.352;2022-09-28T14:03:20;3.20;;;1.08;;
22468;SDS011;11401;50.792;4.352;2022-09-28T14:08:36;1.73;;;0.90;;
22468;SDS011;11401;50.792;4.352;2022-09-28T14:16:40;2.33;;;0.95;;
22468;SDS011;11401;50.792;4.352;2022-09-28T14:19:09;1.63;;;0.90;;
22468;SDS011;11401;50.792;4.352;2022-09-28T14:24:22;1.33;;;1.05;;
22468;SDS011;11401;50.792;4.352;2022-09-28T14:28:04;4.78;;;2.00;;
22468;SDS011;11401;50.792;4.352;2022-09-28T14:30:15;1.85;;;1.27;;
22468;SDS011;11401;50.792;4.352;2022-09-28T14:32:49;5.15;;;1.23;;
22468;SDS011;11401;50.792;4.352;2022-09-28T14:38:15;2.05;;;1.00;;
22468;SDS011;11401;50.792;4.352;2022-09-28T14:41:37;3.42;;;1.27;;
22468;SDS011;11401;50.792;4.352;2022-09-28T14:44:08;5.07;;;1.63;;
22468;SDS011;11401;50.792;4.352;2022-09-28T15:04:48;1.67;;;1.35;;
22468;SDS011;11401;50.792;4.352;2022-09-28T15:07:24;0.90;;;0.80;;
22468;SDS011;11401;50.792;4.352;2022-09-28T15:09:55;1.02;;;0.93;;
22468;SDS011;11401;50.792;4.352;2022-09-28T15:12:24;2.35;;;1.10;;
22468;SDS011;11401;50.792;4.352;2022-09-28T15:17:28;1.23;;;1.10;;
22468;SDS011;11401;50.792;4.352;2022-09-28T15:22:45;3.58;;;1.00;;
22468;SDS011;11401;50.792;4.352;2022-09-28T15:25:15;2.85;;;0.88;;
22468;SDS011;11401;50.792;4.352;2022-09-28T15:27:50;4.07;;;1.10;;
22468;SDS011;11401;50.792;4.352;2022-09-28T15:33:01;3.83;;;1.13;;
22468;SDS011;11401;50.792;4.352;2022-09-28T15:35:49;2.67;;;1.00;;
22468;SDS011;11401;50.792;4.352;2022-09-28T15:38:17;1.25;;;0.85;;
22468;SDS011;11401;50.792;4.352;2022-09-28T15:40:44;2.00;;;0.90;;
22468;SDS011;11401;50.792;4.352;2022-09-28T15:43:28;2.63;;;1.25;;
22468;SDS011;11401;50.792;4.352;2022-09-28T15:46:11;4.15;;;1.23;;
22468;SDS011;11401;50.792;4.352;2022-09-28T15:51:22;3.80;;;1.27;;
22468;SDS011;11401;50.792;4.352;2022-09-28T15:53:56;2.05;;;1.17;;
22468;SDS011;11401;50.792;4.352;2022-09-28T15:56:29;1.63;;;0.90;;
22468;SDS011;11401;50.792;4.352;2022-09-28T15:59:06;2.22;;;1.10;;
22468;SDS011;11401;50.792;4.352;2022-09-28T16:01:36;1.48;;;1.15;;
22468;SDS011;11401;50.792;4.352;2022-09-28T16:15:09;1.27;;;1.15;;
22468;SDS011;11401;50.792;4.352;2022-09-28T16:17:47;2.63;;;1.10;;
22468;SDS011;11401;50.792;4.352;2022-09-28T16:20:54;3.13;;;1.52;;
22468;SDS011;11401;50.792;4.352;2022-09-28T16:25:47;1.20;;;1.00;;
22468;SDS011;11401;50.792;4.352;2022-09-28T16:28:44;1.75;;;1.30;;
22468;SDS011;11401;50.792;4.352;2022-09-28T16:33:54;3.08;;;1.30;;
22468;SDS011;11401;50.792;4.352;2022-09-28T16:36:24;1.38;;;1.10;;
22468;SDS011;11401;50.792;4.352;2022-09-28T16:38:54;1.25;;;1.00;;
22468;SDS011;11401;50.792;4.352;2022-09-28T16:41:23;3.50;;;1.30;;
22468;SDS011;11401;50.792;4.352;2022-09-28T16:43:55;2.17;;;1.20;;
22468;SDS011;11401;50.792;4.352;2022-09-28T16:46:30;2.10;;;1.15;;
22468;SDS011;11401;50.792;4.352;2022-09-28T16:49:02;2.88;;;1.52;;
22468;SDS011;11401;50.792;4.352;2022-09-28T16:51:31;4.78;;;1.60;;
22468;SDS011;11401;50.792;4.352;2022-09-28T16:53:59;1.77;;;1.67;;
22468;SDS011;11401;50.792;4.352;2022-09-28T16:56:57;2.72;;;1.83;;
22468;SDS011;11401;50.792;4.352;2022-09-28T16:59:26;1.60;;;1.40;;
22468;SDS011;11401;50.792;4.352;2022-09-28T17:01:54;2.88;;;1.95;;
22468;SDS011;11401;50.792;4.352;2022-09-28T17:04:25;2.45;;;1.67;;
22468;SDS011;11401;50.792;4.352;2022-09-28T17:06:52;1.83;;;1.30;;
22468;SDS011;11401;50.792;4.352;2022-09-28T17:09:20;2.08;;;1.42;;
22468;SDS011;11401;50.792;4.352;2022-09-28T17:11:48;3.03;;;1.40;;
22468;SDS011;11401;50.792;4.352;2022-09-28T17:14:22;2.50;;;1.65;;
22468;SDS011;11401;50.792;4.352;2022-09-28T17:16:50;5.85;;;1.70;;
22468;SDS011;11401;50.792;4.352;2022-09-28T17:19:39;4.70;;;1.73;;
22468;SDS011;11401;50.792;4.352;2022-09-28T17:22:07;2.35;;;1.30;;
22468;SDS011;11401;50.792;4.352;2022-09-28T17:24:34;6.03;;;2.35;;
22468;SDS011;11401;50.792;4.352;2022-09-28T17:27:02;5.72;;;1.98;;
22468;SDS011;11401;50.792;4.352;2022-09-28T17:29:30;4.07;;;1.90;;
22468;SDS011;11401;50.792;4.352;2022-09-28T17:31:57;5.15;;;2.17;;
22468;SDS011;11401;50.792;4.352;2022-09-28T17:34:24;2.53;;;1.60;;
22468;SDS011;11401;50.792;4.352;2022-09-28T17:36:51;2.40;;;1.77;;
22468;SDS011;11401;50.792;4.352;2022-09-28T17:39:18;3.03;;;1.98;;
22468;SDS011;11401;50.792;4.352;2022-09-28T17:41:45;4.93;;;2.33;;
22468;SDS011;11401;50.792;4.352;2022-09-28T17:44:12;2.75;;;1.55;;
22468;SDS011;11401;50.792;4.352;2022-09-28T17:46:42;2.55;;;2.05;;
22468;SDS011;11401;50.792;4.352;2022-09-28T17:49:15;4.28;;;1.80;;
22468;SDS011;11401;50.792;4.352;2022-09-28T17:51:42;6.45;;;2.40;;
22468;SDS011;11401;50.792;4.352;2022-09-28T17:54:09;4.47;;;2.10;;
22468;SDS011;11401;50.792;4.352;2022-09-28T17:56:38;3.42;;;1.73;;
22468;SDS011;11401;50.792;4.352;2022-09-28T17:59:06;3.00;;;1.60;;
22468;SDS011;11401;50.792;4.352;2022-09-28T18:01:37;7.57;;;2.20;;
22468;SDS011;11401;50.792;4.352;2022-09-28T18:04:07;5.55;;;1.90;;
22468;SDS011;11401;50.792;4.352;2022-09-28T18:06:53;5.22;;;2.33;;
22468;SDS011;11401;50.792;4.352;2022-09-28T18:09:20;4.63;;;2.60;;
22468;SDS011;11401;50.792;4.352;2022-09-28T18:11:50;5.40;;;2.88;;
22468;SDS011;11401;50.792;4.352;2022-09-28T18:14:25;3.38;;;2.78;;
22468;SDS011;11401;50.792;4.352;2022-09-28T18:16:54;6.40;;;3.58;;
22468;SDS011;11401;50.792;4.352;2022-09-28T18:19:21;7.10;;;4.32;;
22468;SDS011;11401;50.792;4.352;2022-09-28T18:21:48;5.45;;;3.67;;
22468;SDS011;11401;50.792;4.352;2022-09-28T18:24:15;7.28;;;3.50;;
22468;SDS011;11401;50.792;4.352;2022-09-28T18:26:42;5.43;;;3.90;;
22468;SDS011;11401;50.792;4.352;2022-09-28T18:29:09;7.05;;;3.97;;
22468;SDS011;11401;50.792;4.352;2022-09-28T18:31:36;5.43;;;3.28;;
22468;SDS011;11401;50.792;4.352;2022-09-28T18:34:03;5.85;;;3.20;;
22468;SDS011;11401;50.792;4.352;2022-09-28T18:36:30;5.47;;;3.72;;
22468;SDS011;11401;50.792;4.352;2022-09-28T18:38:59;4.47;;;3.58;;
22468;SDS011;11401;50.792;4.352;2022-09-28T18:41:27;5.43;;;4.60;;
22468;SDS011;11401;50.792;4.352;2022-09-28T18:43:54;6.25;;;3.97;;
22468;SDS011;11401;50.792;4.352;2022-09-28T18:46:26;5.60;;;3.45;;
22468;SDS011;11401;50.792;4.352;2022-09-28T18:48:54;4.43;;;3.80;;
22468;SDS011;11401;50.792;4.352;2022-09-28T18:51:21;7.20;;;3.95;;
22468;SDS011;11401;50.792;4.352;2022-09-28T18:53:48;7.07;;;3.75;;
22468;SDS011;11401;50.792;4.352;2022-09-28T18:56:16;3.85;;;3.45;;
22468;SDS011;11401;50.792;4.352;2022-09-28T18:58:44;6.55;;;4.72;;
22468;SDS011;11401;50.792;4.352;2022-09-28T19:01:13;5.35;;;4.13;;